createdAt,value
2018-02-02T00:00:51.625Z,2.10
2018-02-02T00:03:19.120Z,2.10
2018-02-02T00:05:46.892Z,2.20
2018-02-02T00:08:14.388Z,2.20
2018-02-02T00:10:43.402Z,2.20
2018-02-02T00:13:11.644Z,2.20
2018-02-02T00:15:39.150Z,2.20
2018-02-02T00:18:06.621Z,2.20
2018-02-02T00:20:34.108Z,2.10
2018-02-02T00:23:01.581Z,2.10
2018-02-02T00:25:29.065Z,2.00
2018-02-02T00:27:57.306Z,1.90
2018-02-02T00:30:24.805Z,1.90
2018-02-02T00:32:53.044Z,1.80
2018-02-02T00:35:20.549Z,1.80
2018-02-02T00:37:48.035Z,1.70
2018-02-02T00:40:15.537Z,1.70
2018-02-02T00:42:43.783Z,1.50
2018-02-02T00:45:11.261Z,1.50
2018-02-02T00:47:38.758Z,1.50
2018-02-02T00:50:06.350Z,1.40
2018-02-02T00:52:33.873Z,1.30
2018-02-02T00:55:01.348Z,1.20
2018-02-02T00:57:28.841Z,1.10
2018-02-02T00:59:56.320Z,1.10
2018-02-02T01:02:24.584Z,1.00
2018-02-02T01:04:52.097Z,1.00
2018-02-02T01:07:19.577Z,1.00
2018-02-02T01:09:47.081Z,1.00
2018-02-02T01:12:14.560Z,0.90
2018-02-02T01:14:42.302Z,0.90
2018-02-02T01:17:09.781Z,0.90
2018-02-02T01:19:37.278Z,0.90
2018-02-02T01:22:04.757Z,0.90
2018-02-02T01:24:33.025Z,0.90
2018-02-02T01:27:00.501Z,0.80
2018-02-02T01:29:28.745Z,1.00
2018-02-02T01:31:56.233Z,0.90
2018-02-02T01:34:24.481Z,1.10
2018-02-02T01:36:51.969Z,1.00
2018-02-02T01:39:20.218Z,1.10
2018-02-02T01:41:47.717Z,1.00
2018-02-02T01:44:15.193Z,1.00
2018-02-02T01:46:42.673Z,1.00
2018-02-02T01:49:10.165Z,1.10
2018-02-02T01:51:38.409Z,1.00
2018-02-02T01:54:05.901Z,1.00
2018-02-02T01:56:34.141Z,1.00
2018-02-02T01:59:01.645Z,0.90
2018-02-02T02:01:29.122Z,1.00
2018-02-02T02:03:56.601Z,0.90
2018-02-02T02:06:24.098Z,0.90
2018-02-02T02:08:52.364Z,0.70
2018-02-02T02:11:19.905Z,0.70
2018-02-02T02:13:47.382Z,0.60
2018-02-02T02:16:15.645Z,0.40
2018-02-02T02:18:43.889Z,0.40
2018-02-02T02:21:11.366Z,0.40
2018-02-02T02:23:39.105Z,0.50
2018-02-02T02:26:06.581Z,0.50
2018-02-02T02:28:34.076Z,0.50
2018-02-02T02:31:02.325Z,0.50
2018-02-02T02:33:29.805Z,0.50
2018-02-02T02:35:58.065Z,0.50
2018-02-02T02:38:25.537Z,0.50
2018-02-02T02:40:53.777Z,0.60
2018-02-02T02:43:21.285Z,0.60
2018-02-02T02:45:48.766Z,0.60
2018-02-02T02:48:16.260Z,0.60
2018-02-02T02:50:44.505Z,0.50
2018-02-02T02:53:11.985Z,0.50
2018-02-02T02:55:39.480Z,0.50
2018-02-02T02:58:07.728Z,0.60
2018-02-02T03:00:35.205Z,0.60
2018-02-02T03:03:03.473Z,0.60
2018-02-02T03:05:30.944Z,0.60
2018-02-02T03:07:59.469Z,0.60
2018-02-02T03:10:26.961Z,0.60
2018-02-02T03:12:54.689Z,0.60
2018-02-02T03:15:22.184Z,0.60
2018-02-02T03:17:51.169Z,0.60
2018-02-02T03:20:18.646Z,0.60
2018-02-02T03:22:46.909Z,0.60
2018-02-02T03:25:14.384Z,0.60
2018-02-02T03:27:42.648Z,0.70
2018-02-02T03:30:10.402Z,0.70
2018-02-02T03:32:37.933Z,0.80
2018-02-02T03:35:05.425Z,0.80
2018-02-02T03:37:33.681Z,0.70
2018-02-02T03:40:01.160Z,0.70
2018-02-02T03:42:28.656Z,0.80
2018-02-02T03:44:56.135Z,0.70
2018-02-02T03:47:23.612Z,0.80
2018-02-02T03:49:51.109Z,0.80
2018-02-02T03:52:19.364Z,0.80
2018-02-02T03:54:46.845Z,0.80
2018-02-02T03:57:14.645Z,0.80
2018-02-02T03:59:42.125Z,0.80
2018-02-02T04:02:09.601Z,0.80
2018-02-02T04:04:37.101Z,0.80
2018-02-02T04:07:04.580Z,0.80
2018-02-02T04:09:32.851Z,0.80
2018-02-02T04:12:00.336Z,0.80
2018-02-02T04:14:27.814Z,0.80
2018-02-02T04:16:55.305Z,0.80
2018-02-02T04:19:22.785Z,0.70
2018-02-02T04:21:50.548Z,0.60
2018-02-02T04:24:18.179Z,0.50
2018-02-02T04:26:45.657Z,0.50
2018-02-02T04:29:13.152Z,0.60
2018-02-02T04:31:40.628Z,0.60
2018-02-02T04:34:08.884Z,0.70
2018-02-02T04:36:36.385Z,0.70
2018-02-02T04:39:03.869Z,0.80
2018-02-02T04:41:31.348Z,0.90
2018-02-02T04:43:58.842Z,0.90
2018-02-02T04:46:27.089Z,0.90
2018-02-02T04:48:55.340Z,0.80
2018-02-02T04:51:22.834Z,0.80
2018-02-02T04:53:51.088Z,0.80
2018-02-02T04:56:18.601Z,0.80
2018-02-02T04:58:46.081Z,0.80
2018-02-02T05:01:13.558Z,0.90
2018-02-02T05:03:41.065Z,0.90
2018-02-02T05:06:08.536Z,1.00
2018-02-02T05:08:36.071Z,0.90
2018-02-02T05:11:03.576Z,0.90
2018-02-02T05:13:31.057Z,0.90
2018-02-02T05:15:58.548Z,0.80
2018-02-02T05:18:26.823Z,0.70
2018-02-02T05:20:55.053Z,0.70
2018-02-02T05:23:22.549Z,0.70
2018-02-02T05:25:50.825Z,0.70
2018-02-02T05:28:19.068Z,0.70
2018-02-02T05:30:46.801Z,0.70
2018-02-02T05:33:14.273Z,0.70
2018-02-02T05:35:41.753Z,0.70
2018-02-02T05:38:09.249Z,0.80
2018-02-02T05:40:36.790Z,0.80
2018-02-02T05:43:05.056Z,1.00
2018-02-02T05:45:32.534Z,0.90
2018-02-02T05:48:00.010Z,1.00
2018-02-02T05:50:27.509Z,1.00
2018-02-02T05:52:54.980Z,1.10
2018-02-02T05:55:22.485Z,1.10
2018-02-02T05:57:49.961Z,1.10
2018-02-02T06:00:17.432Z,1.30
2018-02-02T06:02:44.924Z,1.30
2018-02-02T06:05:13.168Z,1.30
2018-02-02T06:07:40.646Z,1.30
2018-02-02T06:10:08.981Z,1.30
2018-02-02T06:12:36.426Z,1.30
2018-02-02T06:15:03.925Z,1.30
2018-02-02T06:17:32.160Z,1.20
2018-02-02T06:19:59.677Z,1.20
2018-02-02T06:22:27.955Z,1.00
2018-02-02T06:24:56.193Z,1.00
2018-02-02T06:27:23.673Z,1.00
2018-02-02T06:29:51.169Z,1.00
2018-02-02T06:32:18.645Z,0.90
2018-02-02T06:34:46.161Z,0.90
2018-02-02T06:37:14.425Z,0.80
2018-02-02T06:39:41.905Z,0.80
2018-02-02T06:42:09.381Z,0.90
2018-02-02T06:44:36.881Z,0.90
2018-02-02T06:47:04.357Z,0.90
2018-02-02T06:49:32.069Z,0.90
2018-02-02T06:51:59.573Z,0.80
2018-02-02T06:54:27.053Z,0.90
2018-02-02T06:56:54.534Z,0.80
2018-02-02T06:59:22.059Z,0.80
2018-02-02T07:01:50.301Z,0.80
2018-02-02T07:04:17.801Z,0.80
2018-02-02T07:06:45.276Z,0.80
2018-02-02T07:09:12.760Z,0.90
2018-02-02T07:11:40.257Z,0.90
2018-02-02T07:14:08.500Z,0.90
2018-02-02T07:16:35.996Z,0.90
2018-02-02T07:19:04.522Z,0.90
2018-02-02T07:21:32.004Z,0.90
2018-02-02T07:23:59.592Z,1.00
2018-02-02T07:26:27.837Z,1.10
2018-02-02T07:28:55.318Z,1.10
2018-02-02T07:31:23.849Z,1.20
2018-02-02T07:33:51.325Z,1.20
2018-02-02T07:36:18.824Z,1.20
2018-02-02T07:38:47.076Z,1.30
2018-02-02T07:41:14.556Z,1.30
2018-02-02T07:43:42.068Z,1.30
2018-02-02T07:46:09.553Z,1.40
2018-02-02T07:48:37.033Z,1.40
2018-02-02T07:51:05.302Z,1.40
2018-02-02T07:53:33.544Z,1.50
2018-02-02T07:56:01.017Z,1.40
2018-02-02T07:58:28.518Z,1.50
2018-02-02T08:01:01.625Z,1.50
2018-02-02T08:03:29.117Z,1.60
2018-02-02T08:05:56.593Z,1.60
2018-02-02T08:08:24.828Z,1.70
2018-02-02T08:10:52.328Z,1.70
2018-02-02T08:13:20.579Z,1.70
2018-02-02T08:15:48.060Z,1.70
2018-02-02T08:18:16.325Z,1.70
2018-02-02T08:20:43.797Z,1.70
2018-02-02T08:23:12.051Z,1.80
2018-02-02T08:25:39.719Z,1.70
2018-02-02T08:28:07.349Z,1.80
2018-02-02T08:30:34.837Z,1.80
2018-02-02T08:33:02.329Z,1.90
2018-02-02T08:35:29.813Z,1.90
2018-02-02T08:37:57.309Z,2.00
2018-02-02T08:40:24.777Z,2.00
2018-02-02T08:42:54.798Z,2.00
2018-02-02T08:45:20.521Z,2.00
2018-02-02T08:47:48.756Z,2.10
2018-02-02T08:50:16.236Z,2.10
2018-02-02T08:52:44.521Z,2.10
2018-02-02T08:55:12.769Z,2.20
2018-02-02T08:57:40.240Z,2.20
2018-02-02T09:00:07.737Z,2.30
2018-02-02T09:02:35.208Z,2.20
2018-02-02T09:05:02.681Z,2.20
2018-02-02T09:07:30.181Z,2.40
2018-02-02T09:09:58.421Z,2.40
2018-02-02T09:12:25.893Z,2.40
2018-02-02T09:14:53.381Z,2.40
2018-02-02T09:17:21.625Z,2.70
2018-02-02T09:19:49.097Z,2.70
2018-02-02T09:22:16.585Z,2.70
2018-02-02T09:24:44.258Z,2.70
2018-02-02T09:27:11.597Z,2.80
2018-02-02T09:29:39.072Z,2.70
2018-02-02T09:32:06.549Z,2.70
2018-02-02T09:34:34.037Z,2.70
2018-02-02T09:37:01.512Z,2.80
2018-02-02T09:39:29.772Z,2.90
2018-02-02T09:41:57.249Z,2.90
2018-02-02T09:44:24.726Z,2.90
2018-02-02T09:46:52.217Z,3.00
2018-02-02T09:49:19.844Z,3.00
2018-02-02T09:51:47.350Z,2.90
2018-02-02T09:54:14.838Z,2.90
2018-02-02T09:56:43.077Z,3.00
2018-02-02T09:59:10.557Z,2.90
2018-02-02T10:01:38.833Z,3.00
2018-02-02T10:04:07.076Z,2.90
2018-02-02T10:06:34.554Z,2.90
2018-02-02T10:09:02.049Z,3.00
2018-02-02T10:11:29.643Z,3.10
2018-02-02T10:13:57.170Z,3.20
2018-02-02T10:16:24.700Z,3.10
2018-02-02T10:18:52.937Z,3.20
2018-02-02T10:21:20.409Z,3.10
2018-02-02T10:23:47.945Z,3.20
2018-02-02T10:26:15.417Z,3.10
2018-02-02T10:28:42.890Z,3.20
2018-02-02T10:31:10.388Z,3.10
2018-02-02T10:33:37.861Z,3.20
2018-02-02T10:36:05.689Z,3.10
2018-02-02T10:38:34.028Z,3.30
2018-02-02T10:41:01.501Z,3.30
2018-02-02T10:43:28.981Z,3.20
2018-02-02T10:45:57.241Z,3.30
2018-02-02T10:48:24.709Z,3.30
2018-02-02T10:50:52.953Z,3.40
2018-02-02T10:53:20.445Z,3.40
2018-02-02T10:55:48.693Z,3.30
2018-02-02T10:58:16.164Z,3.30
2018-02-02T11:00:49.293Z,3.30
2018-02-02T11:03:17.576Z,3.50
2018-02-02T11:05:45.352Z,3.60
2018-02-02T11:08:12.841Z,3.50
2018-02-02T11:10:40.361Z,3.60
2018-02-02T11:13:08.600Z,3.40
2018-02-02T11:15:36.840Z,3.60
2018-02-02T11:18:04.408Z,3.60
2018-02-02T11:20:31.865Z,3.70
2018-02-02T11:22:59.332Z,3.80
2018-02-02T11:25:27.869Z,3.80
2018-02-02T11:27:55.365Z,3.70
2018-02-02T11:30:22.836Z,3.80
2018-02-02T11:32:50.309Z,3.70
2018-02-02T11:35:18.569Z,3.70
2018-02-02T11:37:46.816Z,3.80
2018-02-02T11:40:14.293Z,3.80
2018-02-02T11:42:41.785Z,3.80
2018-02-02T11:45:09.264Z,3.80
2018-02-02T11:47:36.741Z,3.80
2018-02-02T11:50:04.245Z,3.80
2018-02-02T11:52:32.481Z,3.80
2018-02-02T11:54:59.981Z,3.80
2018-02-02T11:57:28.213Z,3.90
2018-02-02T11:59:55.825Z,3.90
2018-02-02T12:02:23.318Z,4.00
2018-02-02T12:04:50.793Z,4.00
2018-02-02T12:07:18.265Z,3.90
2018-02-02T12:09:45.757Z,4.00
2018-02-02T12:12:13.236Z,4.00
2018-02-02T12:14:40.709Z,4.00
2018-02-02T12:17:08.204Z,4.00
2018-02-02T12:19:36.445Z,3.90
2018-02-02T12:22:09.629Z,3.90
2018-02-02T12:38:09.964Z,3.90
2018-02-02T12:40:37.437Z,3.90
2018-02-02T12:43:05.693Z,4.10
2018-02-02T12:45:33.182Z,4.10
2018-02-02T12:48:03.122Z,4.30
2018-02-02T12:50:36.233Z,4.30
2018-02-02T12:53:03.714Z,4.30
2018-02-02T12:55:31.188Z,4.30
2018-02-02T12:57:59.465Z,4.30
2018-02-02T13:00:27.737Z,4.40
2018-02-02T13:02:55.208Z,4.30
2018-02-02T13:05:23.470Z,4.60
2018-02-02T13:07:51.750Z,4.80
2018-02-02T13:10:19.985Z,5.00
2018-02-02T13:12:47.479Z,5.00
2018-02-02T13:15:15.726Z,5.20
2018-02-02T13:17:43.198Z,5.20
2018-02-02T13:20:10.693Z,5.10
2018-02-02T13:22:38.169Z,5.20
2018-02-02T13:25:05.640Z,5.30
2018-02-02T13:27:33.134Z,5.80
2018-02-02T13:30:00.609Z,6.20
2018-02-02T13:32:28.841Z,5.80
2018-02-02T13:34:56.333Z,5.80
2018-02-02T13:37:24.577Z,5.60
2018-02-02T13:39:52.313Z,5.60
2018-02-02T13:42:19.806Z,5.50
2018-02-02T13:44:47.277Z,5.30
2018-02-02T13:47:14.749Z,5.30
2018-02-02T13:49:43.005Z,5.20
2018-02-02T13:52:10.478Z,5.20
2018-02-02T13:54:38.719Z,5.20
2018-02-02T13:57:06.209Z,5.20
2018-02-02T13:59:34.457Z,5.30
2018-02-02T14:02:01.934Z,5.30
2018-02-02T14:04:29.424Z,5.30
2018-02-02T14:06:56.897Z,5.20
2018-02-02T14:09:24.381Z,5.00
2018-02-02T14:11:51.908Z,5.10
2018-02-02T14:14:19.377Z,5.10
2018-02-02T14:16:46.848Z,5.20
2018-02-02T14:19:14.341Z,5.20
2018-02-02T14:21:42.597Z,5.20
2018-02-02T14:24:10.073Z,5.20
2018-02-02T14:26:38.333Z,5.30
2018-02-02T14:29:05.809Z,5.30
2018-02-02T14:31:34.188Z,5.20
2018-02-02T14:34:02.449Z,5.20
2018-02-02T14:36:29.925Z,5.20
2018-02-02T14:38:58.166Z,5.30
2018-02-02T14:41:25.657Z,5.20
2018-02-02T14:43:53.897Z,5.20
2018-02-02T14:46:21.373Z,5.20
2018-02-02T14:48:49.083Z,5.20
2018-02-02T14:51:16.745Z,5.10
2018-02-02T14:53:44.272Z,5.00
2018-02-02T14:56:12.541Z,4.90
2018-02-02T14:58:40.092Z,4.90
2018-02-02T15:01:07.655Z,4.80
2018-02-02T15:03:35.218Z,4.80
2018-02-02T15:06:04.162Z,4.70
2018-02-02T15:08:31.640Z,4.70
2018-02-02T15:10:59.197Z,4.70
2018-02-02T15:13:26.696Z,4.60
2018-02-02T15:15:55.368Z,4.50
2018-02-02T15:18:23.624Z,4.50
2018-02-02T15:20:51.093Z,4.50
2018-02-02T15:23:18.569Z,4.50
2018-02-02T15:25:46.833Z,4.50
2018-02-02T15:28:14.335Z,4.40
2018-02-02T15:30:41.789Z,4.40
2018-02-02T15:33:09.284Z,4.40
2018-02-02T15:35:36.752Z,4.50
2018-02-02T15:38:04.247Z,4.40
2018-02-02T15:40:31.746Z,4.40
2018-02-02T15:42:59.220Z,4.40
2018-02-02T15:45:28.200Z,4.40
2018-02-02T15:47:55.722Z,4.40
2018-02-02T15:50:23.195Z,4.40
2018-02-02T15:52:50.947Z,4.40
2018-02-02T15:55:18.446Z,4.40
2018-02-02T15:57:45.917Z,4.40
2018-02-02T16:00:13.389Z,4.40
2018-02-02T16:02:41.737Z,4.40
2018-02-02T16:05:09.462Z,4.30
2018-02-02T16:07:36.933Z,4.30
2018-02-02T16:10:04.445Z,4.30
2018-02-02T16:12:31.993Z,4.30
2018-02-02T16:15:00.250Z,4.30
2018-02-02T16:17:27.778Z,4.30
2018-02-02T16:19:55.254Z,4.20
2018-02-02T16:22:22.728Z,4.30
2018-02-02T16:24:50.220Z,4.20
2018-02-02T16:27:17.712Z,4.20
2018-02-02T16:29:46.431Z,4.20
2018-02-02T16:32:13.905Z,4.20
2018-02-02T16:34:42.181Z,4.20
2018-02-02T16:37:10.417Z,4.10
2018-02-02T16:39:37.928Z,4.10
2018-02-02T16:42:05.405Z,4.10
2018-02-02T16:44:32.880Z,4.10
2018-02-02T16:47:00.370Z,4.10
2018-02-02T16:49:27.844Z,4.10
2018-02-02T16:51:56.088Z,4.10
2018-02-02T16:54:25.098Z,4.10
2018-02-02T16:56:52.569Z,4.10
2018-02-02T16:59:20.818Z,4.10
2018-02-02T17:01:48.332Z,4.10
2018-02-02T17:04:15.845Z,4.10
2018-02-02T17:06:44.104Z,4.10
2018-02-02T17:09:11.593Z,4.10
2018-02-02T17:11:40.003Z,4.10
2018-02-02T17:14:07.505Z,4.10
2018-02-02T17:16:35.001Z,4.20
2018-02-02T17:19:02.474Z,4.20
2018-02-02T17:21:29.949Z,4.20
2018-02-02T17:23:57.443Z,4.10
2018-02-02T17:26:24.941Z,4.10
2018-02-02T17:28:52.433Z,4.20
2018-02-02T17:31:19.928Z,4.10
2018-02-02T17:33:48.166Z,4.20
2018-02-02T17:36:15.830Z,4.20
2018-02-02T17:38:43.339Z,4.20
2018-02-02T17:41:10.809Z,4.20
2018-02-02T17:43:38.285Z,4.10
2018-02-02T17:46:05.781Z,4.10
2018-02-02T17:48:33.411Z,4.20
2018-02-02T17:51:00.959Z,4.10
2018-02-02T17:53:28.480Z,4.10
2018-02-02T17:55:56.721Z,4.10
2018-02-02T17:58:24.197Z,4.10
2018-02-02T18:14:15.913Z,3.90
2018-02-02T18:16:43.401Z,3.90
2018-02-02T18:19:10.878Z,3.90
2018-02-02T18:21:38.375Z,3.90
2018-02-02T18:24:05.853Z,4.00
2018-02-02T18:26:33.752Z,4.00
2018-02-02T18:29:01.373Z,4.00
2018-02-02T18:31:29.641Z,4.00
2018-02-02T18:33:58.259Z,4.00
2018-02-02T18:36:25.857Z,4.00
2018-02-02T18:38:53.466Z,4.10
2018-02-02T18:41:21.333Z,4.10
2018-02-02T18:43:49.591Z,4.10
2018-02-02T18:46:17.882Z,4.10
2018-02-02T18:48:45.369Z,4.10
2018-02-02T18:51:13.334Z,4.10
2018-02-02T18:53:40.858Z,4.10
2018-02-02T18:56:09.096Z,4.10
2018-02-02T18:58:36.592Z,4.10
2018-02-02T19:01:04.961Z,4.10
2018-02-02T19:03:33.197Z,4.10
2018-02-02T19:06:00.774Z,4.10
2018-02-02T19:08:28.289Z,4.00
2018-02-02T19:10:55.797Z,4.00
2018-02-02T19:13:23.290Z,4.00
2018-02-02T19:15:50.778Z,4.00
2018-02-02T19:18:18.344Z,4.00
2018-02-02T19:20:46.725Z,4.00
2018-02-02T19:23:14.199Z,4.00
2018-02-02T19:25:41.713Z,4.00
2018-02-02T19:28:09.276Z,4.00
2018-02-02T19:30:36.765Z,4.00
2018-02-02T19:33:04.301Z,4.00
2018-02-02T19:35:31.797Z,4.00
2018-02-02T19:37:59.268Z,4.00
2018-02-02T19:40:27.509Z,4.00
2018-02-02T19:42:55.005Z,4.00
2018-02-02T19:45:23.241Z,4.10
2018-02-02T19:47:50.720Z,4.00
2018-02-02T19:50:18.222Z,4.00
2018-02-02T19:52:45.925Z,4.00
2018-02-02T19:55:13.396Z,4.10
2018-02-02T19:57:42.868Z,4.10
2018-02-02T20:00:10.342Z,4.10
2018-02-02T20:02:37.821Z,4.00
2018-02-02T20:05:06.081Z,4.10
2018-02-02T20:07:33.556Z,4.10
2018-02-02T20:10:01.801Z,4.10
2018-02-02T20:12:29.304Z,4.10
2018-02-02T20:14:56.830Z,4.10
2018-02-02T20:17:24.340Z,4.10
2018-02-02T20:19:51.845Z,4.10
2018-02-02T20:22:19.325Z,4.10
2018-02-02T20:24:47.573Z,4.00
2018-02-02T20:27:15.071Z,4.00
2018-02-02T20:29:42.549Z,4.00
2018-02-02T20:32:10.022Z,4.00
2018-02-02T20:34:37.513Z,4.00
2018-02-02T20:37:04.984Z,4.10
2018-02-02T20:39:33.225Z,4.00
2018-02-02T20:42:00.721Z,4.00
2018-02-02T20:44:28.999Z,4.00
2018-02-02T20:46:57.241Z,4.00
2018-02-02T20:49:24.739Z,3.90
2018-02-02T20:51:52.976Z,3.90
2018-02-02T20:54:20.450Z,3.90
2018-02-02T20:56:47.942Z,4.00
2018-02-02T20:59:15.417Z,4.00
2018-02-02T21:01:42.897Z,4.00
2018-02-02T21:04:10.384Z,4.00
2018-02-02T21:06:38.857Z,3.90
2018-02-02T21:09:06.332Z,3.90
2018-02-02T21:11:34.596Z,3.90
2018-02-02T21:14:02.072Z,3.90
2018-02-02T21:16:29.577Z,3.90
2018-02-02T21:18:57.088Z,4.00
2018-02-02T21:21:25.321Z,4.00
2018-02-02T21:23:52.793Z,4.00
2018-02-02T21:26:20.281Z,4.00
2018-02-02T21:28:47.821Z,4.00
2018-02-02T21:31:15.334Z,4.00
2018-02-02T21:33:42.825Z,4.00
2018-02-02T21:36:10.303Z,4.00
2018-02-02T21:38:38.557Z,4.00
2018-02-02T21:41:06.052Z,4.00
2018-02-02T21:43:33.589Z,4.00
2018-02-02T21:46:01.829Z,4.00
2018-02-02T21:48:29.328Z,4.00
2018-02-02T21:50:57.573Z,4.00
2018-02-02T21:53:25.052Z,4.00
2018-02-02T21:55:53.313Z,4.00
2018-02-02T21:58:20.789Z,4.00
2018-02-02T22:00:49.025Z,4.00
2018-02-02T22:03:16.522Z,4.00
2018-02-02T22:05:44.926Z,3.90
2018-02-02T22:08:12.425Z,3.90
2018-02-02T22:10:39.925Z,3.90
2018-02-02T22:13:07.397Z,3.90
2018-02-02T22:15:34.895Z,3.90
2018-02-02T22:18:02.382Z,3.90
2018-02-02T22:20:30.629Z,3.90
2018-02-02T22:22:58.101Z,3.90
2018-02-02T22:25:27.096Z,3.90
2018-02-02T22:27:54.568Z,3.90
2018-02-02T22:30:22.808Z,3.80
2018-02-02T22:32:50.306Z,3.80
2018-02-02T22:35:18.545Z,3.90
2018-02-02T22:37:46.019Z,3.90
2018-02-02T22:40:13.509Z,3.90
2018-02-02T22:42:40.985Z,3.90
2018-02-02T22:45:08.465Z,3.90
2018-02-02T22:47:35.957Z,3.90
2018-02-02T22:50:03.426Z,3.90
2018-02-02T22:52:31.660Z,3.90
2018-02-02T22:54:59.165Z,3.90
2018-02-02T22:57:26.633Z,3.80
2018-02-02T22:59:54.109Z,3.80
2018-02-02T23:02:21.601Z,3.80
2018-02-02T23:04:49.841Z,3.80
2018-02-02T23:07:18.612Z,3.80
2018-02-02T23:09:47.969Z,3.70
2018-02-02T23:12:17.592Z,3.70
2018-02-02T23:14:47.805Z,3.70
2018-02-02T23:17:16.955Z,3.70
2018-02-02T23:19:46.178Z,3.70
2018-02-02T23:22:15.013Z,3.70
2018-02-02T23:24:42.526Z,3.80
2018-02-02T23:27:10.017Z,3.70
2018-02-02T23:29:38.253Z,3.70
2018-02-02T23:32:05.745Z,3.60
2018-02-02T23:34:34.000Z,3.60
2018-02-02T23:37:01.473Z,3.60
2018-02-02T23:39:29.709Z,3.50
2018-02-02T23:41:57.196Z,3.50
2018-02-02T23:44:24.677Z,3.50
2018-02-02T23:46:52.913Z,3.50
2018-02-02T23:49:20.413Z,3.50
2018-02-02T23:51:47.889Z,3.50
2018-02-02T23:54:15.358Z,3.50
2018-02-02T23:56:42.849Z,3.50
2018-02-02T23:59:10.328Z,3.50
